Time;durP1;ratioP1;P1;durP2;ratioP2;P2;SDS_P1;SDS_P2;PMS_P1;PMS_P2;Temp;Humidity;BMP_temperature;BMP_pressure;BME280_temperature;BME280_humidity;BME280_pressure;Samples;Min_cycle;Max_cycle;Signal;HPM_P1;HPM_P2
2023/12/22 00:01:15;;;;;;;2.90;0.93;;;;;;;7.02;100.00;95514.03;5035094;28;20044;-75
2023/12/22 00:03:41;;;;;;;4.25;0.90;;;;;;;7.03;100.00;95540.13;5038196;28;20535;-74
2023/12/22 00:06:07;;;;;;;1.13;0.70;;;;;;;7.06;100.00;95531.22;5050362;28;20037;-74
2023/12/22 00:08:32;;;;;;;3.95;1.00;;;;;;;7.16;100.00;95522.34;5034030;28;20045;-75
2023/12/22 00:10:57;;;;;;;2.85;0.80;;;;;;;7.15;100.00;95536.34;5032147;28;20059;-75
2023/12/22 00:13:23;;;;;;;1.83;0.95;;;;;;;7.19;100.00;95529.78;5033256;28;20537;-74
2023/12/22 00:15:48;;;;;;;3.92;1.00;;;;;;;7.20;100.00;95509.59;5030519;28;20503;-74
2023/12/22 00:18:14;;;;;;;3.13;1.45;;;;;;;7.22;100.00;95507.28;5034514;28;20033;-74
2023/12/22 00:20:39;;;;;;;1.90;1.00;;;;;;;7.29;100.00;95533.78;5031822;28;20047;-74
2023/12/22 00:23:04;;;;;;;3.35;0.95;;;;;;;7.30;100.00;95534.56;5035191;28;20103;-74
2023/12/22 00:25:30;;;;;;;3.17;1.30;;;;;;;7.32;100.00;95529.53;5039839;28;20124;-74
2023/12/22 00:27:55;;;;;;;3.10;1.05;;;;;;;7.28;100.00;95543.88;5039890;28;20033;-73
2023/12/22 00:30:20;;;;;;;3.95;1.35;;;;;;;7.22;100.00;95539.94;5036305;28;20475;-73
2023/12/22 00:32:46;;;;;;;5.43;1.30;;;;;;;7.22;100.00;95547.31;5045209;28;20571;-73
2023/12/22 00:35:11;;;;;;;2.05;1.17;;;;;;;7.22;100.00;95552.75;5026999;28;20041;-72
2023/12/22 00:37:36;;;;;;;4.00;1.30;;;;;;;7.13;100.00;95538.66;5043186;28;20041;-73
2023/12/22 00:40:07;;;;;;;4.95;1.80;;;;;;;6.93;100.00;95566.03;5040781;28;20033;-73
2023/12/22 00:42:32;;;;;;;5.78;1.42;;;;;;;6.76;100.00;95553.78;5042479;28;20044;-74
2023/12/22 00:44:57;;;;;;;4.50;1.35;;;;;;;6.72;100.00;95571.22;5049311;28;20075;-72
2023/12/22 00:47:23;;;;;;;4.93;1.20;;;;;;;6.67;100.00;95573.13;5045394;28;20768;-74
2023/12/22 00:49:48;;;;;;;3.30;1.13;;;;;;;6.65;100.00;95553.66;5035365;28;20060;-73
2023/12/22 00:52:13;;;;;;;4.07;1.20;;;;;;;6.64;100.00;95584.72;5031094;28;20044;-73
2023/12/22 00:54:39;;;;;;;2.40;1.02;;;;;;;6.60;100.00;95570.31;5044377;28;20048;-73
2023/12/22 00:57:04;;;;;;;2.33;0.80;;;;;;;6.59;100.00;95578.81;5033796;28;20056;-73
2023/12/22 00:59:30;;;;;;;1.05;0.77;;;;;;;6.56;100.00;95588.53;5037980;28;20029;-73
2023/12/22 01:01:55;;;;;;;3.90;0.80;;;;;;;6.50;100.00;95590.78;5037114;28;20110;-72
2023/12/22 01:04:20;;;;;;;3.08;0.80;;;;;;;6.50;100.00;95609.03;5032614;28;21122;-73
2023/12/22 01:06:46;;;;;;;3.28;0.88;;;;;;;6.50;100.00;95603.59;5056661;28;20699;-72
2023/12/22 01:09:11;;;;;;;3.15;0.80;;;;;;;6.49;100.00;95612.91;5033158;28;20041;-71
2023/12/22 01:11:37;;;;;;;2.92;1.00;;;;;;;6.42;100.00;95615.50;5039361;28;20071;-72
2023/12/22 01:14:02;;;;;;;4.97;1.02;;;;;;;6.45;100.00;95615.56;5038939;28;20166;-71
2023/12/22 01:16:28;;;;;;;1.85;0.90;;;;;;;6.46;100.00;95625.31;5029588;28;20395;-71
2023/12/22 01:18:53;;;;;;;4.10;0.80;;;;;;;6.45;100.00;95612.06;5040986;28;20040;-73
2023/12/22 01:21:19;;;;;;;1.95;0.98;;;;;;;6.44;100.00;95618.66;5036750;28;20037;-72
2023/12/22 01:23:44;;;;;;;1.95;0.90;;;;;;;6.46;100.00;95610.91;5042459;28;20048;-72
2023/12/22 01:26:09;;;;;;;3.70;1.00;;;;;;;6.48;100.00;95603.16;5036120;28;20056;-71
2023/12/22 01:28:35;;;;;;;1.58;0.70;;;;;;;6.46;100.00;95600.81;5041512;28;20431;-73
2023/12/22 01:31:01;;;;;;;1.60;1.15;;;;;;;6.43;100.00;95615.16;5033157;28;20045;-73
2023/12/22 01:33:26;;;;;;;2.17;0.90;;;;;;;6.48;100.00;95619.47;5043408;28;20045;-71
2023/12/22 01:35:51;;;;;;;2.15;1.33;;;;;;;6.51;100.00;95616.81;5040554;28;20036;-72
2023/12/22 01:38:17;;;;;;;1.45;0.70;;;;;;;6.48;100.00;95616.75;5035248;28;20033;-72
2023/12/22 01:40:42;;;;;;;2.10;0.90;;;;;;;6.48;100.00;95617.56;5041080;28;20041;-72
2023/12/22 01:43:08;;;;;;;9.65;5.10;;;;;;;6.45;100.00;95634.59;5028004;28;20091;-72
2023/12/22 01:45:33;;;;;;;2.80;0.90;;;;;;;6.41;100.00;95639.22;5042286;28;20044;-72
2023/12/22 01:47:59;;;;;;;7.60;3.35;;;;;;;6.28;100.00;95644.06;5041188;28;20099;-71
2023/12/22 01:50:25;;;;;;;2.35;1.10;;;;;;;6.32;100.00;95646.84;5038050;28;20131;-72
2023/12/22 01:52:50;;;;;;;2.85;1.33;;;;;;;6.35;100.00;95632.50;5042455;28;20526;-72
2023/12/22 01:55:17;;;;;;;6.60;2.28;;;;;;;6.28;100.00;95629.66;5036434;28;20045;-72
2023/12/22 01:57:44;;;;;;;3.53;1.30;;;;;;;6.23;100.00;95629.97;5040602;28;20454;-71
2023/12/22 02:00:10;;;;;;;4.57;1.63;;;;;;;6.16;100.00;95618.97;5027059;28;20069;-71
2023/12/22 02:02:38;;;;;;;1.63;0.80;;;;;;;6.16;100.00;95621.69;5040703;28;20043;-70
2023/12/22 02:05:04;;;;;;;2.03;1.13;;;;;;;6.12;100.00;95625.16;5036827;28;20099;-72
2023/12/22 02:07:30;;;;;;;6.57;1.80;;;;;;;6.05;100.00;95619.63;5035607;28;20100;-71
2023/12/22 02:09:56;;;;;;;3.47;1.27;;;;;;;6.11;100.00;95637.19;5041247;28;20517;-72
2023/12/22 02:12:22;;;;;;;2.95;1.33;;;;;;;6.11;100.00;95630.97;5038503;28;20060;-72
2023/12/22 02:14:48;;;;;;;3.50;1.10;;;;;;;6.09;100.00;95653.06;5021886;28;20043;-72
2023/12/22 02:17:32;;;;;;;3.55;0.73;;;;;;;6.21;100.00;95656.75;5024284;28;20076;-71
2023/12/22 02:19:58;;;;;;;4.25;1.00;;;;;;;6.18;100.00;95654.78;5021101;28;20041;-72
2023/12/22 02:22:23;;;;;;;4.53;0.88;;;;;;;6.18;100.00;95644.69;5029263;28;20389;-72
2023/12/22 02:24:49;;;;;;;3.67;1.02;;;;;;;6.24;100.00;95651.38;5058032;28;20037;-72
2023/12/22 02:27:25;;;;;;;1.85;0.88;;;;;;;6.27;100.00;95669.69;5070547;28;20044;-68
2023/12/22 02:30:28;;;;;;;5.05;0.90;;;;;;;6.32;100.00;95650.34;5045791;28;20125;-71
2023/12/22 02:33:00;;;;;;;2.03;0.93;;;;;;;6.28;100.00;95673.97;5037720;28;20095;-71
2023/12/22 02:35:28;;;;;;;2.50;1.00;;;;;;;6.33;100.00;95664.72;5032790;28;20079;-72
2023/12/22 02:37:57;;;;;;;0.70;0.60;;;;;;;6.34;100.00;95674.47;5030781;28;20037;-71
2023/12/22 02:40:24;;;;;;;0.95;0.65;;;;;;;6.35;100.00;95656.19;5028733;28;20920;-72
2023/12/22 02:42:52;;;;;;;1.48;0.80;;;;;;;6.34;100.00;95649.97;5030876;28;20041;-72
2023/12/22 02:45:19;;;;;;;3.28;0.85;;;;;;;6.23;100.00;95657.97;5020107;28;20080;-70
2023/12/22 02:47:45;;;;;;;2.70;0.90;;;;;;;6.17;100.00;95664.06;5035340;28;20041;-70
2023/12/22 02:50:13;;;;;;;4.30;0.90;;;;;;;6.11;100.00;95655.44;5021017;28;20094;-70
2023/12/22 02:52:39;;;;;;;1.77;1.02;;;;;;;6.09;100.00;95663.16;5028272;28;20037;-70
2023/12/22 02:55:05;;;;;;;1.85;0.85;;;;;;;6.00;100.00;95665.34;5029167;28;20091;-70
2023/12/22 02:57:31;;;;;;;3.58;1.00;;;;;;;6.04;100.00;95672.41;5038326;28;20053;-70
2023/12/22 02:59:57;;;;;;;1.58;0.70;;;;;;;6.05;100.00;95678.63;5018854;28;20037;-70
2023/12/22 03:02:22;;;;;;;3.45;1.10;;;;;;;6.06;100.00;95667.38;5013805;28;20482;-70
2023/12/22 03:04:47;;;;;;;4.65;0.98;;;;;;;6.07;100.00;95660.81;5027680;28;20087;-69
2023/12/22 03:07:13;;;;;;;2.53;1.00;;;;;;;6.10;100.00;95653.84;5017649;28;20101;-70
2023/12/22 03:09:39;;;;;;;4.85;1.08;;;;;;;6.04;100.00;95669.69;5019816;28;20124;-70
2023/12/22 03:12:06;;;;;;;2.40;0.70;;;;;;;6.14;100.00;95676.47;5026967;28;20033;-70
2023/12/22 03:14:33;;;;;;;1.60;0.80;;;;;;;6.06;100.00;95685.63;5039484;28;20045;-69
2023/12/22 03:16:59;;;;;;;2.50;0.82;;;;;;;6.15;100.00;95688.13;5017395;28;20041;-72
2023/12/22 03:19:24;;;;;;;4.38;1.08;;;;;;;6.11;100.00;95690.78;5021931;28;20084;-71
2023/12/22 03:21:50;;;;;;;5.35;1.10;;;;;;;6.15;100.00;95688.13;5020635;28;20037;-72
2023/12/22 03:24:15;;;;;;;3.97;0.95;;;;;;;6.07;100.00;95685.28;5029034;28;20124;-73
2023/12/22 03:26:41;;;;;;;3.67;1.10;;;;;;;6.06;100.00;95688.34;5022775;28;20179;-71
2023/12/22 03:29:06;;;;;;;2.97;1.17;;;;;;;6.09;100.00;95693.84;5021838;28;20044;-71
2023/12/22 03:31:32;;;;;;;3.97;1.00;;;;;;;6.01;100.00;95691.38;5027775;28;20044;-72
2023/12/22 03:33:57;;;;;;;5.53;1.00;;;;;;;6.09;100.00;95699.28;5035584;28;20087;-74
2023/12/22 03:36:22;;;;;;;3.42;0.98;;;;;;;6.07;100.00;95700.81;5004468;28;20085;-73
2023/12/22 03:38:48;;;;;;;3.70;1.05;;;;;;;6.03;100.00;95705.38;5027019;28;20045;-71
2023/12/22 03:41:13;;;;;;;6.78;1.08;;;;;;;6.05;100.00;95665.03;5020530;28;20037;-72
2023/12/22 03:43:38;;;;;;;3.22;0.90;;;;;;;6.15;100.00;95686.19;5022142;28;20065;-73
2023/12/22 03:46:04;;;;;;;1.17;0.85;;;;;;;6.10;100.00;95691.91;5026378;28;20060;-76
2023/12/22 03:48:29;;;;;;;5.30;1.00;;;;;;;6.15;100.00;95702.50;5034979;28;20107;-73
2023/12/22 03:50:55;;;;;;;3.53;0.95;;;;;;;6.12;100.00;95711.38;5027852;28;20044;-73
2023/12/22 03:53:20;;;;;;;2.53;0.75;;;;;;;5.98;100.00;95686.66;5014482;28;20041;-72
2023/12/22 03:55:45;;;;;;;3.38;1.17;;;;;;;5.89;100.00;95692.31;5039299;28;20429;-73
2023/12/22 03:58:11;;;;;;;2.83;0.90;;;;;;;5.84;100.00;95703.47;5034174;28;20075;-72
2023/12/22 04:00:36;;;;;;;3.22;0.80;;;;;;;5.90;100.00;95705.50;5054259;28;20045;-73
2023/12/22 04:03:02;;;;;;;5.57;0.75;;;;;;;5.73;100.00;95703.25;5040325;28;20164;-75
2023/12/22 04:05:28;;;;;;;2.53;1.05;;;;;;;5.62;100.00;95702.25;5032665;28;20068;-71
2023/12/22 04:07:53;;;;;;;2.65;0.95;;;;;;;5.57;100.00;95716.16;5038995;28;20056;-71
2023/12/22 04:10:19;;;;;;;4.40;1.00;;;;;;;5.76;100.00;95721.53;5037667;28;20091;-71
2023/12/22 04:12:44;;;;;;;4.80;1.63;;;;;;;5.75;100.00;95712.63;5042236;28;20114;-69
2023/12/22 04:15:10;;;;;;;3.10;1.00;;;;;;;5.78;100.00;95727.44;5032306;28;20037;-70
2023/12/22 04:17:36;;;;;;;4.35;1.15;;;;;;;5.68;100.00;95714.41;5013386;28;20135;-70
2023/12/22 04:20:01;;;;;;;2.60;0.95;;;;;;;5.78;100.00;95729.34;5033290;28;20037;-72
2023/12/22 04:22:27;;;;;;;5.45;1.00;;;;;;;5.59;100.00;95724.72;5017670;28;20373;-71
2023/12/22 04:24:52;;;;;;;2.78;1.13;;;;;;;5.60;100.00;95735.22;5019496;28;20042;-69
2023/12/22 04:27:18;;;;;;;5.10;1.10;;;;;;;5.63;100.00;95731.00;5017767;28;20037;-70
2023/12/22 04:29:43;;;;;;;4.45;1.40;;;;;;;5.63;100.00;95725.56;5023044;28;20416;-70
2023/12/22 04:32:09;;;;;;;8.55;1.27;;;;;;;5.60;100.00;95718.94;5030414;28;20064;-71
2023/12/22 04:34:34;;;;;;;5.35;2.28;;;;;;;5.69;100.00;95707.81;5059405;28;20041;-71
2023/12/22 04:37:00;;;;;;;2.75;1.10;;;;;;;5.62;100.00;95691.38;5030852;28;20052;-71
2023/12/22 04:41:51;;;;;;;2.33;1.15;;;;;;;5.69;100.00;95705.91;5010834;23;20050;-71
2023/12/22 04:44:16;;;;;;;2.47;1.15;;;;;;;5.75;100.00;95706.41;4976171;28;20057;-71
2023/12/22 04:46:41;;;;;;;3.85;1.10;;;;;;;5.75;100.00;95703.69;4984979;28;20078;-71
2023/12/22 04:49:07;;;;;;;3.30;1.00;;;;;;;5.80;100.00;95717.00;4982951;28;20042;-71
2023/12/22 04:51:32;;;;;;;7.60;1.25;;;;;;;5.87;100.00;95727.19;4982120;28;20050;-71
2023/12/22 04:53:58;;;;;;;3.38;1.10;;;;;;;5.91;100.00;95723.41;4988712;28;20041;-71
2023/12/22 04:56:23;;;;;;;3.63;1.02;;;;;;;5.96;100.00;95716.94;4977673;28;20526;-71
2023/12/22 04:58:50;;;;;;;1.83;1.00;;;;;;;5.97;100.00;95696.75;4980844;28;20081;-71
2023/12/22 05:01:15;;;;;;;1.88;0.77;;;;;;;6.00;100.00;95712.34;4983413;28;20145;-72
2023/12/22 05:03:40;;;;;;;1.95;0.82;;;;;;;5.99;100.00;95721.63;4984528;28;20154;-72
2023/12/22 05:06:06;;;;;;;1.48;0.90;;;;;;;5.98;100.00;95736.38;4978339;28;20480;-72
2023/12/22 05:08:31;;;;;;;1.60;1.02;;;;;;;5.94;100.00;95730.03;4984804;28;20046;-70
2023/12/22 05:10:56;;;;;;;3.75;1.05;;;;;;;5.93;100.00;95728.47;4996748;28;20035;-70
2023/12/22 05:13:22;;;;;;;2.55;1.02;;;;;;;5.91;100.00;95725.34;4995635;28;21015;-71
2023/12/22 05:15:47;;;;;;;5.60;1.17;;;;;;;5.88;100.00;95731.50;4982907;28;20046;-72
2023/12/22 05:18:13;;;;;;;5.25;1.27;;;;;;;5.90;100.00;95740.84;4978047;28;20735;-73
2023/12/22 05:20:39;;;;;;;3.75;1.10;;;;;;;5.89;100.00;95733.06;4982699;28;20073;-72
2023/12/22 05:23:04;;;;;;;4.53;1.02;;;;;;;5.91;100.00;95747.84;4987606;28;20077;-70
2023/12/22 05:25:30;;;;;;;2.67;0.95;;;;;;;5.97;100.00;95756.53;4974191;28;20058;-72
2023/12/22 05:27:55;;;;;;;2.80;0.82;;;;;;;6.00;100.00;95755.81;4981643;28;20046;-70
2023/12/22 05:30:20;;;;;;;6.88;3.40;;;;;;;6.01;100.00;95751.16;4981842;28;20082;-72
2023/12/22 05:32:46;;;;;;;1.77;0.90;;;;;;;6.00;100.00;95758.53;4999658;28;20052;-72
2023/12/22 05:35:11;;;;;;;4.57;1.00;;;;;;;6.03;100.00;95760.53;4991890;28;20680;-71
2023/12/22 05:37:37;;;;;;;3.55;0.80;;;;;;;5.97;100.00;95783.72;4997534;28;20140;-71
2023/12/22 05:40:03;;;;;;;3.50;0.90;;;;;;;6.02;100.00;95782.66;5000513;28;20498;-72
2023/12/22 05:42:28;;;;;;;2.80;0.95;;;;;;;5.96;100.00;95784.88;4992716;28;20054;-72
2023/12/22 05:44:53;;;;;;;3.33;1.13;;;;;;;6.00;100.00;95779.50;5000327;28;20196;-72
2023/12/22 05:47:19;;;;;;;4.22;0.90;;;;;;;6.04;100.00;95789.28;4986854;28;20038;-71
2023/12/22 05:49:44;;;;;;;3.13;0.98;;;;;;;6.04;100.00;95792.00;4998727;28;20516;-71
2023/12/22 05:52:11;;;;;;;3.97;1.30;;;;;;;6.03;100.00;95801.31;4994837;28;20201;-71
2023/12/22 05:54:37;;;;;;;5.55;1.00;;;;;;;6.09;100.00;95808.03;5000926;28;20049;-70
2023/12/22 05:57:05;;;;;;;2.35;1.00;;;;;;;6.08;100.00;95813.81;4998368;28;20129;-70
2023/12/22 05:59:32;;;;;;;2.10;1.00;;;;;;;6.02;100.00;95826.16;4999009;28;20050;-71
2023/12/22 06:01:58;;;;;;;3.47;1.05;;;;;;;6.00;100.00;95831.16;4974233;28;20042;-71
2023/12/22 06:04:24;;;;;;;4.63;1.20;;;;;;;6.07;100.00;95825.84;4992560;28;20592;-72
2023/12/22 06:06:50;;;;;;;1.65;1.00;;;;;;;6.06;100.00;95832.44;4997944;28;20513;-70
2023/12/22 06:09:17;;;;;;;5.72;1.45;;;;;;;6.01;100.00;95846.31;4988558;28;20111;-72
2023/12/22 06:11:42;;;;;;;4.68;1.73;;;;;;;5.99;100.00;95840.44;4987938;28;20202;-71
2023/12/22 06:14:08;;;;;;;2.80;1.10;;;;;;;5.99;100.00;95845.88;4995936;28;20105;-71
2023/12/22 06:16:33;;;;;;;2.65;0.88;;;;;;;5.98;100.00;95834.22;4992537;28;20046;-71
2023/12/22 06:18:58;;;;;;;3.15;1.02;;;;;;;5.90;100.00;95846.84;5000195;28;20052;-70
2023/12/22 06:21:24;;;;;;;4.63;1.20;;;;;;;5.93;100.00;95839.91;4993345;28;20042;-72
2023/12/22 06:23:50;;;;;;;2.03;1.10;;;;;;;5.95;100.00;95840.34;4983836;28;20050;-72
2023/12/22 06:26:15;;;;;;;6.68;1.85;;;;;;;5.96;100.00;95843.88;4992880;28;20129;-72
2023/12/22 06:28:41;;;;;;;2.45;1.10;;;;;;;5.93;100.00;95848.84;4998579;28;20137;-73
2023/12/22 06:31:07;;;;;;;4.30;1.45;;;;;;;5.91;100.00;95844.94;4992284;28;20052;-71
2023/12/22 06:33:33;;;;;;;5.28;1.48;;;;;;;5.92;100.00;95841.03;5021140;28;20046;-71
2023/12/22 06:35:58;;;;;;;5.68;1.73;;;;;;;5.97;100.00;95842.72;4991905;28;20115;-72
2023/12/22 06:38:23;;;;;;;7.75;1.70;;;;;;;5.98;100.00;95847.00;4989761;28;20149;-70
2023/12/22 06:40:50;;;;;;;6.38;1.75;;;;;;;5.96;100.00;95850.09;4996360;28;20502;-72
2023/12/22 06:43:15;;;;;;;6.72;2.05;;;;;;;5.97;100.00;95848.94;4981314;28;20046;-70
2023/12/22 06:45:41;;;;;;;10.73;2.05;;;;;;;6.00;100.00;95844.75;4992080;28;20081;-71
2023/12/22 06:48:07;;;;;;;13.23;1.98;;;;;;;5.98;100.00;95858.69;4983852;28;20046;-70
2023/12/22 06:50:32;;;;;;;5.88;1.90;;;;;;;5.98;100.00;95842.38;4990266;28;20046;-72
2023/12/22 06:52:58;;;;;;;8.63;2.17;;;;;;;5.99;100.00;95851.31;4998410;28;20050;-71
2023/12/22 06:55:23;;;;;;;6.85;1.65;;;;;;;6.00;100.00;95844.75;4990421;28;20769;-71
2023/12/22 06:57:49;;;;;;;6.55;2.15;;;;;;;6.03;100.00;95852.97;4992171;28;20050;-72
2023/12/22 07:00:15;;;;;;;9.55;2.30;;;;;;;6.00;100.00;95856.41;4971792;28;20056;-70
2023/12/22 07:02:41;;;;;;;9.75;2.65;;;;;;;6.02;100.00;95870.41;4987792;28;20105;-72
2023/12/22 07:05:09;;;;;;;8.50;2.30;;;;;;;6.09;100.00;95843.38;4986058;28;20042;-70
2023/12/22 07:07:35;;;;;;;11.65;2.47;;;;;;;6.11;100.00;95846.50;4997563;28;20050;-71
2023/12/22 07:10:01;;;;;;;10.57;2.45;;;;;;;6.11;100.00;95865.53;4984490;28;20179;-71
2023/12/22 07:12:26;;;;;;;10.55;2.17;;;;;;;6.15;100.00;95870.28;4978116;28;20133;-72
2023/12/22 07:14:51;;;;;;;10.15;2.28;;;;;;;6.17;100.00;95873.44;4996753;28;20070;-72
2023/12/22 07:17:17;;;;;;;12.77;2.13;;;;;;;6.16;100.00;95877.28;4997542;28;20046;-71
2023/12/22 07:19:42;;;;;;;71.07;34.97;;;;;;;6.13;100.00;95876.06;4994760;28;20137;-71
2023/12/22 07:22:08;;;;;;;14.13;3.10;;;;;;;6.16;100.00;95890.88;4982617;28;20042;-72
2023/12/22 07:24:33;;;;;;;12.43;2.83;;;;;;;6.12;100.00;95897.03;4995853;28;20055;-72
2023/12/22 07:26:59;;;;;;;8.77;2.33;;;;;;;6.09;100.00;95894.25;5004208;28;20052;-72
2023/12/22 07:29:24;;;;;;;18.73;7.00;;;;;;;6.11;100.00;95902.84;4994451;28;20042;-72
2023/12/22 07:31:50;;;;;;;11.27;2.75;;;;;;;6.16;100.00;95904.47;4985686;28;20509;-71
2023/12/22 07:34:17;;;;;;;6.15;1.90;;;;;;;6.09;100.00;95905.91;4994328;28;20039;-71
2023/12/22 07:36:42;;;;;;;10.38;2.00;;;;;;;6.09;100.00;95919.50;4991841;28;20628;-71
2023/12/22 07:39:09;;;;;;;8.65;1.95;;;;;;;6.11;100.00;95916.44;4982928;28;20042;-71
2023/12/22 07:41:34;;;;;;;9.18;1.88;;;;;;;6.15;100.00;95911.84;4997274;28;20062;-72
2023/12/22 07:44:01;;;;;;;8.43;1.50;;;;;;;6.11;100.00;95917.19;4990974;28;20065;-72
2023/12/22 07:46:28;;;;;;;10.38;2.85;;;;;;;6.10;100.00;95912.94;4986836;28;20046;-71
2023/12/22 07:48:54;;;;;;;7.53;1.80;;;;;;;6.12;100.00;95912.53;5010144;28;20057;-70
2023/12/22 07:51:20;;;;;;;11.63;1.85;;;;;;;6.09;100.00;95933.09;4979035;28;20056;-71
2023/12/22 07:53:45;;;;;;;6.15;1.83;;;;;;;6.09;100.00;95895.03;4993105;28;20121;-71
2023/12/22 07:56:11;;;;;;;7.63;1.70;;;;;;;6.10;100.00;95918.38;4982534;28;20078;-71
2023/12/22 07:58:37;;;;;;;8.40;2.33;;;;;;;6.10;100.00;95917.56;5003799;28;20065;-71
2023/12/22 08:01:03;;;;;;;9.35;2.70;;;;;;;6.11;100.00;95906.34;4989321;28;20506;-70
2023/12/22 08:03:28;;;;;;;11.00;2.08;;;;;;;6.15;100.00;95922.72;4981432;28;20152;-72
2023/12/22 08:05:54;;;;;;;10.30;2.10;;;;;;;6.15;100.00;95927.38;4991716;28;20042;-70
2023/12/22 08:08:19;;;;;;;10.32;2.05;;;;;;;6.11;100.00;95919.16;4975046;28;20597;-72
2023/12/22 08:10:45;;;;;;;5.63;1.75;;;;;;;6.17;100.00;95914.22;4981567;28;20053;-73
2023/12/22 08:13:10;;;;;;;7.10;2.05;;;;;;;6.18;100.00;95907.63;4986307;28;20038;-71
2023/12/22 08:15:35;;;;;;;10.10;1.77;;;;;;;6.14;100.00;95915.72;4984280;28;20204;-71
2023/12/22 08:18:01;;;;;;;5.82;1.83;;;;;;;6.21;100.00;95929.47;4982416;28;20065;-71
2023/12/22 08:20:26;;;;;;;8.13;1.92;;;;;;;6.15;100.00;95920.00;4979623;28;20068;-71
2023/12/22 08:22:52;;;;;;;10.27;1.50;;;;;;;6.18;100.00;95921.22;4983544;28;20133;-72
2023/12/22 08:25:20;;;;;;;7.93;1.90;;;;;;;6.25;100.00;95894.19;4982657;28;20096;-70
2023/12/22 08:27:46;;;;;;;5.82;1.35;;;;;;;6.24;100.00;95903.47;4981211;28;20046;-71
2023/12/22 08:30:11;;;;;;;10.27;2.08;;;;;;;6.26;100.00;95896.53;4994615;28;20140;-71
2023/12/22 08:32:37;;;;;;;7.78;1.70;;;;;;;6.28;100.00;95907.03;5007014;28;20515;-72
2023/12/22 08:35:04;;;;;;;10.13;2.20;;;;;;;6.32;100.00;95911.44;5001551;28;20054;-70
2023/12/22 08:37:31;;;;;;;13.30;3.17;;;;;;;6.35;100.00;95909.91;5001244;28;20129;-71
2023/12/22 08:39:57;;;;;;;11.45;1.40;;;;;;;6.37;100.00;95910.34;4988633;28;20485;-71
2023/12/22 08:42:23;;;;;;;11.70;2.00;;;;;;;6.32;100.00;95907.94;5002877;28;20723;-72
2023/12/22 08:44:49;;;;;;;8.50;1.60;;;;;;;6.29;100.00;95938.56;5023659;28;20057;-71
2023/12/22 08:47:14;;;;;;;8.15;1.90;;;;;;;6.35;100.00;95923.50;5018463;28;20034;-70
2023/12/22 08:49:40;;;;;;;8.90;1.50;;;;;;;6.41;100.00;95921.28;5010489;28;20117;-71
2023/12/22 08:52:05;;;;;;;9.18;1.83;;;;;;;6.41;100.00;95924.00;5001748;28;20100;-71
2023/12/22 08:54:30;;;;;;;11.40;2.08;;;;;;;6.48;100.00;95921.44;5001713;28;20053;-72
2023/12/22 08:56:56;;;;;;;7.82;1.77;;;;;;;6.38;100.00;95922.81;5002875;28;20145;-71
2023/12/22 08:59:21;;;;;;;7.65;1.60;;;;;;;6.40;100.00;95923.22;4992430;28;20049;-70
2023/12/22 09:01:47;;;;;;;9.15;1.83;;;;;;;6.48;100.00;95927.69;4997726;28;20447;-70
2023/12/22 09:04:12;;;;;;;8.35;2.00;;;;;;;6.62;100.00;95929.09;5008339;28;20045;-72
2023/12/22 09:06:39;;;;;;;7.72;1.75;;;;;;;6.51;100.00;95932.38;5021872;28;20045;-70
2023/12/22 09:09:05;;;;;;;8.00;1.77;;;;;;;6.55;100.00;95937.13;5017091;28;20065;-70
2023/12/22 09:11:30;;;;;;;8.13;2.10;;;;;;;6.58;100.00;95929.00;5005351;28;20054;-70
2023/12/22 09:13:55;;;;;;;14.45;2.00;;;;;;;6.51;100.00;95937.03;4994209;28;20046;-70
2023/12/22 09:16:22;;;;;;;10.77;2.10;;;;;;;6.56;100.00;95915.00;4993043;28;20072;-72
2023/12/22 09:18:48;;;;;;;10.52;2.13;;;;;;;6.58;100.00;95915.41;4997623;28;20050;-70
2023/12/22 09:21:13;;;;;;;7.82;2.55;;;;;;;6.57;100.00;95923.94;5001523;28;20042;-70
2023/12/22 09:23:39;;;;;;;11.43;1.92;;;;;;;6.56;100.00;95920.44;5011062;28;20030;-72
2023/12/22 09:26:04;;;;;;;11.40;2.10;;;;;;;6.58;100.00;95925.50;4995213;28;20137;-72
2023/12/22 09:28:30;;;;;;;9.20;1.98;;;;;;;6.68;100.00;95930.34;4987430;28;20050;-73
2023/12/22 09:30:56;;;;;;;5.93;1.75;;;;;;;6.68;100.00;95933.88;4992614;28;20097;-72
2023/12/22 09:33:22;;;;;;;7.65;1.65;;;;;;;6.76;100.00;95931.31;4989630;28;20046;-71
2023/12/22 09:35:48;;;;;;;8.35;2.20;;;;;;;6.75;100.00;95951.47;4987547;28;20050;-71
2023/12/22 09:38:13;;;;;;;7.47;1.95;;;;;;;6.68;100.00;95947.50;4994945;28;20050;-71
2023/12/22 09:40:42;;;;;;;8.88;3.08;;;;;;;6.70;100.00;95953.34;4986373;28;20042;-71
2023/12/22 09:43:08;;;;;;;9.32;2.45;;;;;;;6.71;100.00;95943.25;4995640;28;20118;-71
2023/12/22 09:45:34;;;;;;;8.35;2.05;;;;;;;6.72;100.00;95947.56;4999600;28;20153;-71
2023/12/22 09:48:01;;;;;;;11.32;1.75;;;;;;;6.71;100.00;95943.25;5002489;28;20442;-71
2023/12/22 09:50:30;;;;;;;6.93;1.70;;;;;;;6.71;100.00;95943.25;4993219;28;20050;-71
2023/12/22 09:52:56;;;;;;;12.68;1.95;;;;;;;6.76;100.00;95947.63;4987733;28;20042;-70
2023/12/22 09:55:22;;;;;;;10.75;2.40;;;;;;;6.79;100.00;95938.72;4995764;28;22283;-70
2023/12/22 09:57:49;;;;;;;12.32;2.08;;;;;;;6.76;100.00;95953.84;4983052;28;20045;-70
2023/12/22 10:00:16;;;;;;;9.80;2.83;;;;;;;6.85;100.00;95938.06;4994654;28;20052;-70
2023/12/22 10:02:42;;;;;;;6.03;1.92;;;;;;;6.88;100.00;95923.75;4991332;28;20054;-72
2023/12/22 10:05:10;;;;;;;9.52;1.92;;;;;;;6.92;100.00;95944.81;4975732;28;20034;-70
2023/12/22 10:07:35;;;;;;;6.38;1.60;;;;;;;7.00;100.00;95943.78;4992491;28;20047;-71
2023/12/22 10:10:03;;;;;;;10.48;2.40;;;;;;;6.93;100.00;95951.81;4993745;28;20125;-70
2023/12/22 10:12:30;;;;;;;13.45;2.22;;;;;;;7.02;100.00;95947.72;5004668;28;20046;-71
2023/12/22 10:14:58;;;;;;;10.43;2.53;;;;;;;6.99;100.00;95925.88;5020222;28;20243;-72
2023/12/22 10:17:23;;;;;;;17.30;2.70;;;;;;;6.94;100.00;95931.63;4990763;28;20136;-72
2023/12/22 10:19:49;;;;;;;17.50;2.67;;;;;;;7.08;100.00;95943.56;4994799;28;20073;-71
2023/12/22 10:22:14;;;;;;;14.63;2.65;;;;;;;7.01;100.00;95943.44;4980965;28;20054;-70
2023/12/22 10:24:52;;;;;;;9.40;2.50;;;;;;;7.01;100.00;95932.53;4993574;28;20058;-70
2023/12/22 10:27:22;;;;;;;12.95;2.22;;;;;;;7.07;100.00;95950.13;4998011;28;20054;-71
2023/12/22 10:29:54;;;;;;;8.73;2.80;;;;;;;7.07;100.00;95924.84;5000865;28;20053;-71
2023/12/22 10:32:21;;;;;;;12.05;2.67;;;;;;;7.13;100.00;95934.31;4990819;28;20046;-71
2023/12/22 10:34:46;;;;;;;11.73;2.53;;;;;;;7.19;100.00;95945.69;4985608;28;20053;-71
2023/12/22 10:37:15;;;;;;;10.30;2.53;;;;;;;7.22;100.00;95940.28;4981694;28;20054;-72
2023/12/22 10:39:41;;;;;;;10.38;2.80;;;;;;;7.22;100.00;95950.38;4994897;28;20115;-71
2023/12/22 10:42:07;;;;;;;11.68;2.30;;;;;;;7.25;100.00;95960.56;4980421;28;20524;-71
2023/12/22 10:44:33;;;;;;;12.52;3.58;;;;;;;7.22;100.00;95950.38;4968518;28;20042;-71
2023/12/22 10:47:00;;;;;;;12.23;1.98;;;;;;;7.27;100.00;95925.56;4995386;28;20054;-71
2023/12/22 10:49:26;;;;;;;11.85;2.08;;;;;;;7.27;100.00;95936.47;4985436;28;20046;-71
2023/12/22 10:51:52;;;;;;;8.27;2.30;;;;;;;7.32;100.00;95938.13;5009806;28;20046;-71
2023/12/22 10:54:20;;;;;;;11.02;2.80;;;;;;;7.31;100.00;95929.16;4980973;28;20042;-71
2023/12/22 10:56:45;;;;;;;11.95;2.25;;;;;;;7.35;100.00;95929.22;4969558;28;20088;-71
2023/12/22 10:59:11;;;;;;;8.35;2.00;;;;;;;7.36;100.00;95939.72;4996725;28;20050;-72
2023/12/22 11:01:40;;;;;;;9.38;2.20;;;;;;;7.27;100.00;95926.38;5006355;28;20077;-72
2023/12/22 11:04:08;;;;;;;10.35;1.70;;;;;;;7.25;100.00;95915.03;5000692;28;20053;-71
2023/12/22 11:06:37;;;;;;;9.18;2.10;;;;;;;7.26;100.00;95937.63;5005289;28;20413;-71
2023/12/22 11:09:08;;;;;;;10.90;2.08;;;;;;;7.20;100.00;95903.66;4993461;28;20045;-71
2023/12/22 11:11:35;;;;;;;10.57;2.38;;;;;;;7.21;100.00;95924.31;5025526;28;20046;-71
2023/12/22 11:14:02;;;;;;;11.13;2.20;;;;;;;7.18;100.00;95925.81;5004947;28;20118;-71
2023/12/22 11:16:29;;;;;;;8.95;1.75;;;;;;;7.22;100.00;95926.69;5009643;28;20420;-72
2023/12/22 11:18:56;;;;;;;9.05;2.05;;;;;;;7.29;100.00;95926.00;4994447;28;20058;-70
2023/12/22 11:21:22;;;;;;;12.02;2.30;;;;;;;7.31;100.00;95928.34;4997269;28;20132;-71
2023/12/22 11:23:50;;;;;;;10.95;1.75;;;;;;;7.28;100.00;95917.03;4994145;28;20104;-71
2023/12/22 11:26:20;;;;;;;12.02;2.10;;;;;;;7.27;100.00;95909.22;4985077;28;20052;-72
2023/12/22 11:28:46;;;;;;;5.63;1.80;;;;;;;7.27;100.00;95888.25;5010726;28;20046;-73